Time;durP1;ratioP1;P1;durP2;ratioP2;P2;SDS_P1;SDS_P2;PMS_P1;PMS_P2;Temp;Humidity;BMP_temperature;BMP_pressure;BME280_temperature;BME280_humidity;BME280_pressure;Samples;Min_cycle;Max_cycle;Signal;HPM_P1;HPM_P2
2022/07/14 00:00:00;;;;;;;7.75;3.10;;;14.50;99.90;;;;;;5050583;28;20600;-62
2022/07/14 00:02:25;;;;;;;8.10;2.67;;;14.50;99.90;;;;;;5050597;28;20527;-62
2022/07/14 00:04:51;;;;;;;9.90;2.45;;;14.50;99.90;;;;;;5052151;28;20036;-62
2022/07/14 00:07:17;;;;;;;6.05;2.75;;;14.60;99.90;;;;;;5052202;28;20029;-62
2022/07/14 00:09:43;;;;;;;11.32;3.67;;;14.50;99.90;;;;;;5033513;28;20508;-62
2022/07/14 00:12:08;;;;;;;8.52;3.05;;;14.60;99.90;;;;;;5034443;28;20041;-62
2022/07/14 00:14:34;;;;;;;7.47;2.67;;;14.50;99.90;;;;;;5052135;28;20076;-62
2022/07/14 00:17:00;;;;;;;8.60;3.40;;;14.50;99.90;;;;;;5049567;28;20098;-62
2022/07/14 00:19:26;;;;;;;9.88;2.67;;;14.40;99.90;;;;;;5051109;28;20045;-62
2022/07/14 00:21:52;;;;;;;11.38;2.90;;;14.50;99.90;;;;;;5052076;28;20029;-62
2022/07/14 00:24:18;;;;;;;7.82;2.63;;;14.50;99.90;;;;;;5051289;28;20486;-62
2022/07/14 00:26:44;;;;;;;7.45;3.10;;;14.40;99.90;;;;;;5050628;28;20060;-62
2022/07/14 00:29:10;;;;;;;5.28;2.33;;;14.50;99.90;;;;;;5053434;28;20040;-61
2022/07/14 00:31:35;;;;;;;10.82;3.20;;;14.40;99.90;;;;;;5037562;28;20496;-62
2022/07/14 00:34:02;;;;;;;7.55;3.75;;;14.40;99.90;;;;;;5055894;28;20366;-62
2022/07/14 00:36:28;;;;;;;9.80;3.20;;;14.40;99.90;;;;;;5055434;28;20447;-62
2022/07/14 00:38:55;;;;;;;8.43;3.13;;;14.40;99.90;;;;;;5054262;28;20578;-62
2022/07/14 00:41:20;;;;;;;8.80;2.55;;;14.30;99.90;;;;;;5054871;28;20371;-62
2022/07/14 00:43:46;;;;;;;6.68;2.70;;;14.20;99.90;;;;;;5055191;28;20052;-62
2022/07/14 00:46:12;;;;;;;6.88;2.45;;;14.20;99.90;;;;;;5054632;28;20040;-62
2022/07/14 00:48:38;;;;;;;12.02;3.28;;;14.20;99.90;;;;;;5054736;28;20047;-62
2022/07/14 00:51:04;;;;;;;9.07;2.45;;;14.20;99.90;;;;;;5053314;28;20045;-62
2022/07/14 00:53:30;;;;;;;6.40;2.72;;;14.10;99.90;;;;;;5054986;28;20049;-62
2022/07/14 00:55:55;;;;;;;11.60;2.90;;;14.10;99.90;;;;;;5053966;28;20049;-61
2022/07/14 00:58:21;;;;;;;8.43;2.53;;;14.10;99.90;;;;;;5055183;28;20051;-62
2022/07/14 01:00:47;;;;;;;7.15;2.83;;;14.00;99.90;;;;;;5054292;28;20133;-62
2022/07/14 01:03:14;;;;;;;7.25;2.63;;;;;;;;;;5055521;28;20045;-62
2022/07/14 01:05:40;;;;;;;8.57;2.88;;;14.10;99.90;;;;;;5053877;28;20389;-62
2022/07/14 01:08:06;;;;;;;7.60;2.60;;;14.10;99.90;;;;;;5054193;28;20049;-62
2022/07/14 01:10:32;;;;;;;13.50;3.15;;;13.90;99.90;;;;;;5054243;28;20556;-62
2022/07/14 01:13:01;;;;;;;5.40;2.10;;;14.00;99.90;;;;;;5053008;28;20063;-61
2022/07/14 01:15:28;;;;;;;7.18;2.20;;;13.80;99.90;;;;;;5054451;28;20218;-61
2022/07/14 01:17:53;;;;;;;9.07;2.55;;;13.80;99.90;;;;;;5053876;28;20099;-62
2022/07/14 01:20:20;;;;;;;9.00;3.50;;;13.80;99.90;;;;;;5053487;28;20497;-62
2022/07/14 01:22:49;;;;;;;6.55;2.20;;;13.70;99.90;;;;;;5055141;28;20033;-62
2022/07/14 01:25:16;;;;;;;9.18;2.72;;;13.70;99.90;;;;;;5053817;28;20501;-61
2022/07/14 01:27:42;;;;;;;8.93;2.88;;;13.60;99.90;;;;;;5054675;28;20091;-61
2022/07/14 01:30:09;;;;;;;8.02;2.40;;;13.60;99.90;;;;;;5053701;28;20045;-62
2022/07/14 01:32:35;;;;;;;7.20;2.95;;;13.60;99.90;;;;;;5055269;28;20041;-61
2022/07/14 01:35:02;;;;;;;6.57;2.80;;;13.60;99.90;;;;;;5052670;28;20053;-62
2022/07/14 01:37:28;;;;;;;5.45;2.25;;;13.50;99.90;;;;;;5054355;28;20053;-62
2022/07/14 01:39:54;;;;;;;8.40;2.55;;;13.40;99.90;;;;;;5053340;28;20091;-62
2022/07/14 01:42:19;;;;;;;6.50;2.60;;;13.40;99.90;;;;;;5053390;28;20045;-62
2022/07/14 01:44:45;;;;;;;7.60;2.80;;;13.50;99.90;;;;;;5054718;28;20044;-62
2022/07/14 01:47:11;;;;;;;8.60;2.78;;;13.60;99.90;;;;;;5052617;28;20048;-62
2022/07/14 01:49:37;;;;;;;9.10;2.53;;;13.50;99.90;;;;;;5053830;28;20053;-62
2022/07/14 01:52:03;;;;;;;8.48;2.92;;;13.40;99.90;;;;;;5036382;28;20049;-61
2022/07/14 01:54:29;;;;;;;5.38;2.60;;;13.30;99.90;;;;;;5053887;28;20045;-62
2022/07/14 01:56:55;;;;;;;11.45;2.75;;;13.30;99.90;;;;;;5054158;28;20172;-62
2022/07/14 01:59:21;;;;;;;6.55;2.00;;;13.40;99.90;;;;;;5054608;28;20481;-62
2022/07/14 02:01:46;;;;;;;6.82;2.50;;;13.20;99.90;;;;;;5052325;28;20037;-61
2022/07/14 02:04:13;;;;;;;7.65;3.47;;;;;;;;;;5054639;28;20507;-62
2022/07/14 02:06:44;;;;;;;4.85;1.80;;;13.20;99.90;;;;;;5053314;28;20041;-62
2022/07/14 02:09:10;;;;;;;7.88;2.35;;;;;;;;;;5035599;28;20049;-61
2022/07/14 02:14:24;;;;;;;6.50;2.30;;;;;;;;;;5054428;28;20055;-62
2022/07/14 02:16:50;;;;;;;7.55;2.60;;;;;;;;;;5053378;28;20379;-61
2022/07/14 02:19:16;;;;;;;5.65;2.05;;;;;;;;;;5052790;28;20041;-62
2022/07/14 02:21:42;;;;;;;8.50;2.67;;;;;;;;;;5054477;28;20037;-62
2022/07/14 02:24:09;;;;;;;9.75;2.60;;;;;;;;;;5051817;28;20406;-62
2022/07/14 02:26:36;;;;;;;7.35;2.42;;;;;;;;;;5054186;28;20036;-62
2022/07/14 02:29:02;;;;;;;5.07;2.20;;;;;;;;;;5051437;28;20045;-62
2022/07/14 02:31:28;;;;;;;7.15;2.65;;;;;;;;;;5054037;28;20551;-62
2022/07/14 02:33:54;;;;;;;6.65;2.10;;;;;;;;;;5052262;28;20045;-62
2022/07/14 02:36:20;;;;;;;9.75;3.30;;;;;;;;;;5052062;28;20049;-62
2022/07/14 02:38:46;;;;;;;6.90;2.60;;;;;;;;;;5053765;28;20041;-62
2022/07/14 02:41:13;;;;;;;8.25;2.55;;;;;;;;;;5052336;28;20041;-62
2022/07/14 02:43:39;;;;;;;4.45;2.03;;;;;;;;;;5051970;28;20115;-62
2022/07/14 02:46:05;;;;;;;7.13;2.72;;;;;;;;;;5053184;28;20088;-61
2022/07/14 02:48:31;;;;;;;8.38;2.88;;;;;;;;;;5053687;28;20044;-61
2022/07/14 02:51:01;;;;;;;7.20;2.90;;;;;;;;;;5052561;28;20056;-62
2022/07/14 02:53:27;;;;;;;9.10;3.10;;;;;;;;;;5053717;28;20055;-62
2022/07/14 02:55:54;;;;;;;10.60;4.15;;;;;;;;;;5053054;28;20056;-62
2022/07/14 02:58:20;;;;;;;7.68;3.80;;;12.90;99.90;;;;;;5052743;28;20044;-62
2022/07/14 03:00:46;;;;;;;9.98;3.95;;;12.90;99.90;;;;;;5035483;28;20041;-62
2022/07/14 03:03:12;;;;;;;10.75;4.03;;;12.80;99.90;;;;;;5053140;28;20047;-61
2022/07/14 03:05:37;;;;;;;6.97;3.33;;;12.80;99.90;;;;;;5051670;28;20075;-62
2022/07/14 03:08:04;;;;;;;7.20;3.63;;;12.70;99.90;;;;;;5053009;28;20500;-61
2022/07/14 03:10:30;;;;;;;11.82;3.33;;;12.60;99.90;;;;;;5053254;28;20123;-62
2022/07/14 03:12:56;;;;;;;10.50;2.78;;;12.60;99.90;;;;;;5050984;28;20090;-62
2022/07/14 03:15:22;;;;;;;8.48;2.60;;;12.60;99.90;;;;;;5053314;28;20120;-61
2022/07/14 03:17:48;;;;;;;7.55;2.78;;;12.60;99.90;;;;;;5051699;28;20562;-62
2022/07/14 03:20:14;;;;;;;9.38;3.38;;;12.60;99.90;;;;;;5050744;28;20045;-62
2022/07/14 03:22:40;;;;;;;9.23;3.33;;;12.60;99.90;;;;;;5053013;28;20452;-62
2022/07/14 03:25:06;;;;;;;6.20;2.90;;;12.50;99.90;;;;;;5051112;28;20040;-62
2022/07/14 03:27:35;;;;;;;9.10;2.85;;;12.60;99.90;;;;;;5051208;28;20056;-62
2022/07/14 03:30:02;;;;;;;7.32;3.05;;;12.50;99.90;;;;;;5052521;28;20453;-62
2022/07/14 03:32:28;;;;;;;7.38;2.50;;;12.50;99.90;;;;;;5050954;28;20041;-62
2022/07/14 03:35:05;;;;;;;6.80;2.60;;;12.50;99.90;;;;;;5052511;28;20550;-62
2022/07/14 03:37:31;;;;;;;8.07;2.65;;;12.50;99.90;;;;;;5053079;28;20045;-61
2022/07/14 03:39:56;;;;;;;7.15;2.45;;;12.40;99.90;;;;;;5049976;28;20051;-62
2022/07/14 03:42:23;;;;;;;5.80;2.38;;;12.50;99.90;;;;;;5051600;28;20078;-62
2022/07/14 03:44:48;;;;;;;7.75;2.55;;;12.60;99.90;;;;;;5052291;28;20402;-61
2022/07/14 03:47:15;;;;;;;7.65;2.60;;;12.40;99.90;;;;;;5051736;28;20040;-62
2022/07/14 03:49:41;;;;;;;6.05;2.30;;;12.50;99.90;;;;;;5052793;28;20040;-61
2022/07/14 03:52:07;;;;;;;7.28;3.00;;;12.50;99.90;;;;;;5050797;28;20394;-62
2022/07/14 03:54:32;;;;;;;6.15;2.30;;;12.50;99.90;;;;;;5051737;28;20090;-62
2022/07/14 03:56:58;;;;;;;10.25;2.50;;;12.50;99.90;;;;;;5051968;28;20037;-61
2022/07/14 03:59:24;;;;;;;8.50;2.65;;;12.60;99.90;;;;;;5051141;28;20049;-62
2022/07/14 04:01:49;;;;;;;6.90;2.90;;;12.50;99.90;;;;;;5051655;28;20036;-62
2022/07/14 04:04:15;;;;;;;6.43;2.50;;;12.50;99.90;;;;;;5034049;28;20033;-62
2022/07/14 04:06:41;;;;;;;7.75;3.03;;;12.50;99.90;;;;;;5051431;28;20033;-61
2022/07/14 04:09:06;;;;;;;6.60;2.88;;;12.50;99.90;;;;;;5032998;28;20049;-62
2022/07/14 04:11:32;;;;;;;6.95;2.70;;;12.50;99.90;;;;;;5052286;28;20068;-61
2022/07/14 04:13:58;;;;;;;6.10;2.70;;;12.50;99.90;;;;;;5050500;28;20128;-62
2022/07/14 04:16:24;;;;;;;9.13;2.53;;;12.60;99.90;;;;;;5050295;28;20055;-61
2022/07/14 04:18:49;;;;;;;9.45;2.58;;;12.60;99.90;;;;;;5034178;28;20044;-61
2022/07/14 04:21:15;;;;;;;7.13;2.70;;;12.60;99.90;;;;;;5051870;28;20112;-61
2022/07/14 04:23:41;;;;;;;6.53;3.03;;;12.60;99.90;;;;;;5049778;28;20162;-61
2022/07/14 04:26:07;;;;;;;10.25;3.33;;;12.60;99.90;;;;;;5050511;28;20041;-61
2022/07/14 04:28:33;;;;;;;7.18;3.25;;;12.70;99.90;;;;;;5050069;28;20033;-62
2022/07/14 04:30:59;;;;;;;10.63;3.75;;;12.70;99.90;;;;;;5051784;28;20040;-62
2022/07/14 04:33:24;;;;;;;7.65;3.42;;;12.70;99.90;;;;;;5052134;28;20077;-61
2022/07/14 04:35:50;;;;;;;6.75;3.55;;;12.70;99.90;;;;;;5051129;28;20382;-61
2022/07/14 04:38:16;;;;;;;7.95;3.65;;;12.80;99.90;;;;;;5051643;28;20067;-61
2022/07/14 04:40:49;;;;;;;7.80;3.80;;;12.80;99.90;;;;;;5051974;28;20037;-62
2022/07/14 04:43:16;;;;;;;9.05;3.63;;;12.90;99.90;;;;;;5032988;28;20041;-61
2022/07/14 04:45:42;;;;;;;7.97;3.78;;;12.90;99.90;;;;;;5052166;28;20419;-62
2022/07/14 04:48:07;;;;;;;9.40;4.00;;;12.90;99.90;;;;;;5050671;28;20123;-61
2022/07/14 04:53:18;;;;;;;9.18;3.58;;;13.00;99.90;;;;;;5051658;28;20049;-61
2022/07/14 04:55:43;;;;;;;7.95;3.00;;;13.00;99.90;;;;;;5050528;28;20049;-61
2022/07/14 04:58:09;;;;;;;9.02;3.63;;;13.00;99.90;;;;;;5049910;28;20049;-61
2022/07/14 05:00:35;;;;;;;6.75;3.15;;;13.10;99.90;;;;;;5050612;28;20508;-62
2022/07/14 05:03:01;;;;;;;7.40;3.10;;;13.20;99.90;;;;;;5051305;28;20041;-61
2022/07/14 05:05:26;;;;;;;8.05;2.97;;;13.30;99.90;;;;;;5050939;28;20044;-62
2022/07/14 05:07:52;;;;;;;5.95;3.00;;;13.40;99.90;;;;;;5051447;28;20033;-62
2022/07/14 05:10:18;;;;;;;10.15;3.38;;;13.40;99.90;;;;;;5050504;28;20033;-61
2022/07/14 05:12:43;;;;;;;9.40;3.55;;;13.50;99.90;;;;;;5050679;28;20045;-62
2022/07/14 05:15:09;;;;;;;8.30;2.83;;;;;;;;;;5051518;28;20041;-62
2022/07/14 05:17:35;;;;;;;7.15;2.65;;;;;;;;;;5055815;28;20041;-62
2022/07/14 05:20:02;;;;;;;7.10;3.33;;;;;;;;;;5060934;28;20494;-62
2022/07/14 05:22:33;;;;;;;8.02;2.95;;;14.40;99.90;;;;;;5054127;28;20041;-61
2022/07/14 05:24:59;;;;;;;6.45;3.22;;;14.40;99.90;;;;;;5054066;28;20048;-61
2022/07/14 05:27:27;;;;;;;10.68;3.58;;;;;;;;;;5055609;28;20031;-62
2022/07/14 05:29:53;;;;;;;10.52;3.13;;;;;;;;;;5053829;28;20045;-62
2022/07/14 05:32:19;;;;;;;9.57;3.65;;;;;;;;;;5052375;28;20098;-62
2022/07/14 05:34:46;;;;;;;6.82;2.90;;;;;;;;;;5055902;28;20072;-61
2022/07/14 05:37:12;;;;;;;14.88;3.25;;;;;;;;;;5061080;28;20369;-62
2022/07/14 05:39:38;;;;;;;7.35;2.97;;;;;;;;;;5059839;28;20040;-62
2022/07/14 05:42:05;;;;;;;11.05;3.00;;;;;;;;;;5071077;28;20099;-62
2022/07/14 05:44:31;;;;;;;7.45;2.60;;;;;;;;;;5061443;28;20041;-62
2022/07/14 05:46:57;;;;;;;7.70;2.72;;;;;;;;;;5068922;28;20063;-62
2022/07/14 05:49:23;;;;;;;6.32;2.72;;;;;;;;;;5069399;28;20033;-63
2022/07/14 05:51:49;;;;;;;6.13;2.60;;;;;;;;;;5070366;28;20496;-62
2022/07/14 05:54:15;;;;;;;13.18;2.83;;;;;;;;;;5070022;28;20470;-62
2022/07/14 05:56:41;;;;;;;6.68;2.25;;;;;;;;;;5054703;28;20049;-61
2022/07/14 05:59:07;;;;;;;8.18;2.58;;;;;;;;;;5070167;28;20044;-62
2022/07/14 06:01:33;;;;;;;9.40;2.97;;;;;;;;;;5071737;28;20465;-62
2022/07/14 06:03:59;;;;;;;7.65;2.10;;;;;;;;;;5070409;28;20053;-62
2022/07/14 06:06:26;;;;;;;7.22;2.58;;;;;;;;;;5071990;28;20036;-62
2022/07/14 06:08:52;;;;;;;6.75;2.45;;;;;;;;;;5070479;28;20044;-62
2022/07/14 06:11:18;;;;;;;5.32;1.77;;;;;;;;;;5072525;28;20055;-62
2022/07/14 06:13:45;;;;;;;7.90;2.17;;;;;;;;;;5054583;28;20048;-62
2022/07/14 06:16:12;;;;;;;5.78;1.55;;;;;;;;;;5058403;28;20051;-62
2022/07/14 06:18:38;;;;;;;7.82;2.38;;;;;;;;;;5065073;28;20431;-62
2022/07/14 06:21:13;;;;;;;5.28;1.80;;;;;;;;;;5068290;28;20053;-62
2022/07/14 06:23:39;;;;;;;7.72;1.90;;;;;;;;;;5069829;28;20056;-62
2022/07/14 06:26:12;;;;;;;6.32;1.95;;;;;;;;;;5051368;28;20386;-62
2022/07/14 06:28:38;;;;;;;6.75;1.17;;;;;;;;;;5051195;28;20036;-62
2022/07/14 06:31:04;;;;;;;5.65;1.60;;;;;;;;;;5055650;28;20406;-62
2022/07/14 06:33:30;;;;;;;5.10;1.52;;;17.60;99.90;;;;;;5050178;28;20063;-62
2022/07/14 06:35:56;;;;;;;5.55;1.77;;;17.60;99.90;;;;;;5050011;28;20040;-62
2022/07/14 06:38:21;;;;;;;6.93;1.50;;;17.70;99.90;;;;;;5049247;28;20049;-61
2022/07/14 06:40:47;;;;;;;5.90;2.03;;;17.70;99.90;;;;;;5032235;28;20037;-62
2022/07/14 06:43:13;;;;;;;4.10;1.00;;;17.70;99.90;;;;;;5049185;28;20135;-62
2022/07/14 06:45:39;;;;;;;6.72;1.30;;;17.70;99.90;;;;;;5050260;28;20087;-61
2022/07/14 06:48:05;;;;;;;6.03;1.77;;;17.70;99.90;;;;;;5050754;28;20058;-61
2022/07/14 06:50:31;;;;;;;5.22;1.30;;;17.80;99.90;;;;;;5049161;28;20044;-62
2022/07/14 06:52:57;;;;;;;4.82;1.00;;;;;;;;;;5050485;28;20044;-62
2022/07/14 06:55:23;;;;;;;5.82;1.25;;;;;;;;;;5052278;28;20044;-62
2022/07/14 06:57:50;;;;;;;4.35;1.10;;;;;;;;;;5057777;28;20139;-61
2022/07/14 07:00:18;;;;;;;9.23;1.45;;;;;;;;;;5068783;28;20489;-62
2022/07/14 07:02:44;;;;;;;5.38;1.20;;;;;;;;;;5067980;28;20134;-61
2022/07/14 07:08:01;;;;;;;5.53;1.30;;;;;;;;;;5069690;28;20032;-65
2022/07/14 07:10:27;;;;;;;4.68;0.90;;;;;;;;;;5068489;28;20044;-62
2022/07/14 07:12:54;;;;;;;5.53;1.17;;;;;;;;;;5057007;28;20422;-61
2022/07/14 07:15:21;;;;;;;4.10;1.10;;;;;;;;;;5053678;28;20120;-61
2022/07/14 07:17:48;;;;;;;4.22;0.60;;;;;;;;;;5051049;28;20059;-61
2022/07/14 07:20:14;;;;;;;4.45;0.98;;;;;;;;;;5064606;28;20045;-61
2022/07/14 07:22:40;;;;;;;3.20;1.00;;;;;;;;;;5071671;28;20036;-61
2022/07/14 07:25:07;;;;;;;4.03;0.60;;;;;;;;;;5071650;28;20402;-61
2022/07/14 07:27:33;;;;;;;2.55;0.80;;;;;;;;;;5059844;28;20119;-61
2022/07/14 07:30:00;;;;;;;3.50;0.98;;;;;;;;;;5071001;28;20484;-61
2022/07/14 07:32:26;;;;;;;8.75;1.20;;;;;;;;;;5052474;28;20041;-61
2022/07/14 07:34:52;;;;;;;3.85;0.75;;;;;;;;;;5062162;28;20410;-60
2022/07/14 07:37:18;;;;;;;4.03;1.08;;;;;;;;;;5064065;28;20052;-61
2022/07/14 07:39:44;;;;;;;3.90;1.00;;;;;;;;;;5060451;28;20103;-61
2022/07/14 07:42:10;;;;;;;4.07;1.65;;;;;;;;;;5069283;28;20069;-61
2022/07/14 07:44:36;;;;;;;3.25;0.88;;;;;;;;;;5068464;28;20079;-61
2022/07/14 07:47:03;;;;;;;2.67;0.98;;;;;;;;;;5056028;28;20040;-61
2022/07/14 07:49:29;;;;;;;6.47;0.93;;;;;;;;;;5071164;28;20036;-60
2022/07/14 07:52:00;;;;;;;3.97;0.98;;;18.60;99.90;;;;;;5053961;28;20047;-60
2022/07/14 07:54:27;;;;;;;2.47;0.98;;;18.60;99.90;;;;;;5052192;28;20124;-61
2022/07/14 07:56:54;;;;;;;3.47;0.90;;;18.80;99.90;;;;;;5050804;28;20037;-60
2022/07/14 07:59:19;;;;;;;9.13;1.70;;;18.90;99.90;;;;;;5051215;28;20055;-60
2022/07/14 08:01:45;;;;;;;3.22;1.30;;;18.60;99.90;;;;;;5054213;28;20116;-60
2022/07/14 08:04:11;;;;;;;3.53;0.80;;;18.70;99.90;;;;;;5051319;28;20091;-60
2022/07/14 08:06:37;;;;;;;4.28;0.80;;;18.70;99.90;;;;;;5054843;28;20059;-60
2022/07/14 08:09:03;;;;;;;5.78;1.50;;;18.90;99.90;;;;;;5051797;28;20049;-60
2022/07/14 08:11:29;;;;;;;3.05;1.23;;;18.80;99.90;;;;;;5051206;28;20049;-61
2022/07/14 08:13:55;;;;;;;4.78;1.25;;;18.80;99.90;;;;;;5066409;28;20489;-61
2022/07/14 08:16:20;;;;;;;6.43;1.45;;;18.70;99.90;;;;;;5072200;28;20036;-60
2022/07/14 08:18:46;;;;;;;5.90;1.60;;;18.80;99.90;;;;;;5069650;28;20068;-60
2022/07/14 08:21:12;;;;;;;3.08;0.93;;;18.60;99.90;;;;;;5057828;28;20139;-60
2022/07/14 08:23:38;;;;;;;5.72;1.35;;;18.70;99.90;;;;;;5070118;28;20128;-60
2022/07/14 08:26:04;;;;;;;5.00;1.23;;;19.10;99.90;;;;;;5068991;28;20036;-60
2022/07/14 08:28:30;;;;;;;3.40;0.80;;;18.80;99.90;;;;;;5069714;28;20037;-61
2022/07/14 08:30:56;;;;;;;3.90;0.95;;;18.80;99.90;;;;;;5068768;28;20041;-60
2022/07/14 08:33:21;;;;;;;3.03;0.70;;;18.70;99.90;;;;;;5071800;28;20032;-60
2022/07/14 08:35:47;;;;;;;2.60;0.82;;;18.70;99.90;;;;;;5065461;28;20041;-60
2022/07/14 08:38:13;;;;;;;3.30;0.90;;;18.70;99.90;;;;;;5060552;28;20045;-61
2022/07/14 08:40:39;;;;;;;3.22;0.77;;;18.80;99.90;;;;;;5035177;28;20041;-61
2022/07/14 08:43:05;;;;;;;5.47;1.38;;;18.80;99.90;;;;;;5049722;28;20504;-61
2022/07/14 08:45:39;;;;;;;4.63;0.80;;;18.80;99.90;;;;;;5052517;28;20037;-61
2022/07/14 08:48:05;;;;;;;3.15;1.00;;;18.90;99.90;;;;;;5061477;28;20036;-60
2022/07/14 08:50:32;;;;;;;5.05;0.75;;;19.10;99.90;;;;;;5067993;28;20055;-60
2022/07/14 08:53:03;;;;;;;3.88;1.20;;;19.20;99.90;;;;;;5074650;28;20044;-60
2022/07/14 08:55:31;;;;;;;3.72;1.08;;;19.40;99.90;;;;;;5069635;28;20041;-61
2022/07/14 08:57:57;;;;;;;5.18;1.05;;;19.30;99.90;;;;;;5048492;28;20079;-60
2022/07/14 09:00:23;;;;;;;4.80;1.10;;;19.50;99.90;;;;;;5073802;28;20079;-60
2022/07/14 09:02:51;;;;;;;5.40;1.60;;;19.30;99.90;;;;;;5058975;28;20073;-61
2022/07/14 09:05:17;;;;;;;4.55;1.13;;;19.30;99.90;;;;;;5059618;28;20039;-61
2022/07/14 09:07:43;;;;;;;4.47;0.93;;;19.20;99.90;;;;;;5053760;28;20083;-61
2022/07/14 09:10:11;;;;;;;3.95;1.00;;;19.20;99.90;;;;;;5058985;28;20768;-61
2022/07/14 09:12:38;;;;;;;3.67;0.80;;;19.10;99.90;;;;;;5070130;28;20041;-60
2022/07/14 09:18:04;;;;;;;3.75;1.02;;;19.60;99.90;;;;;;5063085;28;20040;-60
2022/07/14 09:20:36;;;;;;;5.85;1.40;;;19.00;99.90;;;;;;5070579;28;20052;-62
2022/07/14 09:23:03;;;;;;;3.55;1.10;;;19.00;99.90;;;;;;5054654;28;20051;-62
2022/07/14 09:25:31;;;;;;;5.72;0.75;;;19.20;99.90;;;;;;5055894;28;20049;-62
2022/07/14 09:27:57;;;;;;;7.35;1.00;;;19.30;99.90;;;;;;5065337;28;20036;-62
2022/07/14 09:30:24;;;;;;;4.63;0.98;;;19.40;99.90;;;;;;5071536;28;20037;-62
2022/07/14 09:32:56;;;;;;;3.42;0.90;;;19.50;99.90;;;;;;5054207;28;20041;-61
2022/07/14 09:35:43;;;;;;;4.85;0.93;;;19.40;99.90;;;;;;5053988;28;20045;-61
2022/07/14 09:38:19;;;;;;;2.78;0.65;;;19.50;99.90;;;;;;5054376;28;20064;-62
2022/07/14 09:40:47;;;;;;;2.45;0.88;;;19.60;99.90;;;;;;5069339;28;20053;-61
2022/07/14 09:43:14;;;;;;;5.13;1.45;;;19.60;99.90;;;;;;5074537;28;20072;-62
2022/07/14 09:45:42;;;;;;;4.60;0.95;;;19.60;99.90;;;;;;5073148;28;20507;-62
2022/07/14 09:48:16;;;;;;;4.53;1.00;;;19.40;99.90;;;;;;5073719;28;20044;-62
2022/07/14 09:50:48;;;;;;;2.95;1.20;;;19.50;99.90;;;;;;5072511;28;20465;-61
2022/07/14 09:53:15;;;;;;;3.75;1.00;;;19.50;99.90;;;;;;5052939;28;20103;-61
2022/07/14 09:55:58;;;;;;;2.03;0.80;;;19.50;99.90;;;;;;5060414;28;20044;-62
2022/07/14 09:58:31;;;;;;;3.40;0.95;;;19.50;99.90;;;;;;5073439;28;20455;-61
2022/07/14 10:01:18;;;;;;;2.63;0.90;;;19.20;99.90;;;;;;5063527;28;20049;-61
2022/07/14 10:03:47;;;;;;;4.97;0.90;;;19.60;99.90;;;;;;5067886;28;20041;-61
2022/07/14 10:06:14;;;;;;;4.15;1.15;;;19.60;99.90;;;;;;5071991;28;20044;-62
2022/07/14 10:08:46;;;;;;;2.20;0.82;;;19.70;99.90;;;;;;5060142;28;20033;-61
2022/07/14 10:11:12;;;;;;;3.65;1.08;;;19.90;99.90;;;;;;5072988;28;20047;-61
2022/07/14 10:13:39;;;;;;;3.45;1.08;;;19.90;99.90;;;;;;5071120;28;20037;-62
2022/07/14 10:16:05;;;;;;;2.72;1.00;;;19.90;99.90;;;;;;5054921;28;20037;-61
2022/07/14 10:18:32;;;;;;;5.10;1.13;;;20.00;99.90;;;;;;5065913;28;20505;-61
2022/07/14 10:21:00;;;;;;;5.78;1.50;;;19.90;99.90;;;;;;5053746;28;20119;-61
2022/07/14 10:23:29;;;;;;;4.22;1.00;;;19.90;99.90;;;;;;5061804;28;20064;-61
2022/07/14 10:25:56;;;;;;;3.60;0.88;;;19.90;99.90;;;;;;5072380;28;20134;-61
2022/07/14 10:28:23;;;;;;;2.95;1.10;;;19.70;99.90;;;;;;5072039;28;20041;-61
2022/07/14 10:31:13;;;;;;;3.22;1.10;;;19.60;99.90;;;;;;5071338;28;20087;-61
2022/07/14 10:33:49;;;;;;;3.45;1.02;;;19.50;99.90;;;;;;5057064;28;20076;-62
2022/07/14 10:36:24;;;;;;;2.92;0.75;;;19.40;99.90;;;;;;5053195;28;20041;-61
2022/07/14 10:39:10;;;;;;;3.13;1.02;;;19.30;99.90;;;;;;5053739;28;20076;-61
2022/07/14 10:42:14;;;;;;;3.97;1.05;;;19.40;99.90;;;;;;5054460;28;20111;-61
2022/07/14 10:44:45;;;;;;;3.05;0.90;;;19.40;99.90;;;;;;5054496;28;20488;-61
2022/07/14 10:47:13;;;;;;;4.07;0.80;;;19.30;99.90;;;;;;5054164;28;20126;-61
2022/07/14 10:50:00;;;;;;;3.78;1.10;;;19.30;99.90;;;;;;5062578;28;20044;-61
2022/07/14 10:52:29;;;;;;;1.73;0.60;;;19.30;99.90;;;;;;5065841;28;20090;-61
2022/07/14 10:55:13;;;;;;;3.38;1.10;;;19.30;99.90;;;;;;5054825;28;20127;-62
2022/07/14 10:57:59;;;;;;;3.00;0.90;;;19.20;99.90;;;;;;5072858;28;20047;-63
2022/07/14 11:00:43;;;;;;;3.53;1.10;;;19.20;99.90;;;;;;5072270;28;20045;-62
2022/07/14 11:03:25;;;;;;;5.47;0.90;;;19.30;99.90;;;;;;5072700;28;20036;-62
2022/07/14 11:06:07;;;;;;;5.35;1.02;;;19.30;99.90;;;;;;5056213;28;20440;-62
2022/07/14 11:08:41;;;;;;;4.22;0.90;;;19.40;99.90;;;;;;5052109;28;20045;-62
2022/07/14 11:11:18;;;;;;;5.10;1.63;;;19.50;99.90;;;;;;5056355;28;20075;-63
2022/07/14 11:13:59;;;;;;;5.53;1.00;;;19.70;99.90;;;;;;5061605;28;20057;-62
2022/07/14 11:17:00;;;;;;;8.63;1.30;;;19.90;99.90;;;;;;5063423;28;20083;-62
2022/07/14 11:19:40;;;;;;;4.78;0.90;;;19.90;99.90;;;;;;5028977;28;20094;-62
2022/07/14 11:22:11;;;;;;;3.75;1.00;;;20.10;99.90;;;;;;5046105;28;20056;-63
2022/07/14 11:24:57;;;;;;;4.85;1.20;;;20.40;99.90;;;;;;5057213;28;20048;-63
2022/07/14 11:27:35;;;;;;;3.53;0.82;;;;;;;;;;5064524;28;20447;-63
2022/07/14 11:30:20;;;;;;;2.53;0.80;;;;;;;;;;5057101;28;20053;-63
2022/07/14 11:32:46;;;;;;;;;;;;;;;;;;5048541;28;20049;-63
2022/07/14 11:37:59;;;;;;;5.45;1.58;;;;;;;;;;5050445;28;20036;-63
2022/07/14 11:40:48;;;;;;;4.90;0.90;;;;;;;;;;5065349;28;20053;-63
2022/07/14 11:43:29;;;;;;;2.17;0.70;;;;;;;;;;5060933;28;20733;-63
2022/07/14 11:45:59;;;;;;;5.65;0.90;;;;;;;;;;5048579;28;20095;-63
2022/07/14 11:48:29;;;;;;;5.30;1.15;;;;;;;;;;5049320;28;20047;-63
2022/07/14 11:51:04;;;;;;;4.70;0.80;;;;;;;;;;5068770;28;20051;-63
2022/07/14 11:53:31;;;;;;;3.40;0.88;;;;;;;;;;5059267;28;20119;-62
2022/07/14 11:55:58;;;;;;;2.63;1.05;;;;;;;;;;5068352;28;20367;-63
2022/07/14 11:58:24;;;;;;;3.15;1.00;;;;;;;;;;5059910;28;20080;-63
2022/07/14 12:00:57;;;;;;;2.38;0.77;;;;;;;;;;5048233;28;20044;-63
2022/07/14 12:03:24;;;;;;;4.38;1.20;;;;;;;;;;5053970;28;20040;-63
2022/07/14 12:05:54;;;;;;;4.00;0.90;;;;;;;;;;5058466;28;20033;-62
2022/07/14 12:08:24;;;;;;;5.60;1.27;;;;;;;;;;5067559;28;20036;-63
2022/07/14 12:10:51;;;;;;;1.77;0.68;;;;;;;;;;5067919;28;20050;-63
2022/07/14 12:13:20;;;;;;;3.53;1.10;;;;;;;;;;5048737;28;20044;-64
2022/07/14 12:15:47;;;;;;;4.07;0.98;;;;;;;;;;5069584;28;20048;-63
2022/07/14 12:18:13;;;;;;;3.70;0.80;;;;;;;;;;5059460;28;20406;-64
2022/07/14 12:20:46;;;;;;;4.60;0.90;;;;;;;;;;5049497;28;20048;-65
2022/07/14 12:23:13;;;;;;;5.70;1.10;;;;;;;;;;5049923;28;20091;-64
2022/07/14 12:25:46;;;;;;;3.40;1.05;;;;;;;;;;5051906;28;20399;-65
2022/07/14 12:28:17;;;;;;;4.68;1.10;;;;;;;;;;5058129;28;20045;-65
2022/07/14 12:30:44;;;;;;;2.72;0.90;;;;;;;;;;5050277;28;20041;-65
2022/07/14 12:33:11;;;;;;;4.40;1.08;;;;;;;;;;5056908;28;20045;-64
2022/07/14 12:35:37;;;;;;;3.35;1.00;;;;;;;;;;5067300;28;20045;-64
2022/07/14 12:38:03;;;;;;;3.22;0.82;;;;;;;;;;5062082;28;20131;-64
2022/07/14 12:40:32;;;;;;;2.95;0.90;;;;;;;;;;5067678;28;20040;-65
2022/07/14 12:42:58;;;;;;;8.85;1.50;;;;;;;;;;5060568;28;20081;-64
2022/07/14 12:45:24;;;;;;;3.63;1.13;;;;;;;;;;5039758;28;20041;-64
2022/07/14 12:47:51;;;;;;;2.72;0.88;;;;;;;;;;5068663;28;20044;-64
2022/07/14 12:50:25;;;;;;;2.40;0.70;;;20.80;95.70;;;;;;5067344;28;20622;-63
2022/07/14 12:52:54;;;;;;;3.22;0.90;;;21.00;99.90;;;;;;5057462;28;20047;-63
2022/07/14 12:55:36;;;;;;;4.93;1.33;;;20.40;99.90;;;;;;5058150;28;20473;-63
2022/07/14 12:58:06;;;;;;;5.03;1.40;;;20.80;99.90;;;;;;5048481;28;20048;-63
2022/07/14 13:00:33;;;;;;;3.75;1.10;;;21.20;99.90;;;;;;5047805;28;20474;-64
2022/07/14 13:03:15;;;;;;;2.42;1.05;;;21.10;99.90;;;;;;5047997;28;20040;-64
2022/07/14 13:05:55;;;;;;;2.88;1.08;;;21.10;97.10;;;;;;5059743;28;20043;-63
2022/07/14 13:08:37;;;;;;;5.50;1.10;;;21.60;99.90;;;;;;5049314;28;20113;-63
2022/07/14 13:11:11;;;;;;;3.20;0.80;;;22.20;99.90;;;;;;5047869;28;20102;-63
2022/07/14 13:13:42;;;;;;;2.95;0.85;;;21.70;99.90;;;;;;5049596;28;20045;-63
2022/07/14 13:16:20;;;;;;;4.43;0.95;;;21.50;99.90;;;;;;5046851;28;20049;-63
2022/07/14 13:19:03;;;;;;;5.40;1.63;;;21.40;99.30;;;;;;5061191;28;20090;-63
2022/07/14 13:21:47;;;;;;;4.25;0.90;;;;;;;;;;5049717;28;20045;-64
2022/07/14 13:24:14;;;;;;;;;;;21.90;94.20;;;;;;5048282;28;20075;-63
2022/07/14 13:26:39;;;;;;;3.67;1.00;;;21.50;99.90;;;;;;5047453;28;19917;-63
2022/07/14 13:29:05;;;;;;;5.07;1.33;;;21.30;99.90;;;;;;5048719;28;20040;-63
2022/07/14 13:31:31;;;;;;;5.60;1.50;;;20.90;99.90;;;;;;5064864;28;20050;-63
2022/07/14 13:33:58;;;;;;;5.55;1.13;;;20.60;99.90;;;;;;5033512;28;20128;-63
2022/07/14 13:36:24;;;;;;;3.97;1.10;;;20.80;99.90;;;;;;5066034;28;20055;-62
2022/07/14 13:38:50;;;;;;;8.55;1.35;;;21.10;99.50;;;;;;5069485;28;20040;-63
2022/07/14 13:41:17;;;;;;;4.93;1.35;;;21.10;99.90;;;;;;5063098;28;20420;-63